Biggs, Oregon
Current Conditions -  °F | °C
As of 8:53 PM on Wednesday 22 Oct 2014 (Local Time) from KDLS Reporting Station
Light Rain Light Rain  
Wind Chill: 57°   Ceiling: 9000
Heat Index: 57°   Visibility: 10mi
Dew Point: 54°   Wind: 3mph
Humidity: 89%   Direction: 280°W
Pressure: 29.72"   Gusts: NA
Location:  45.5922°N, 120.775°W
Report Text: KDLS 230353Z AUTO 28003KT 10SM -RA FEW046 SCT070 OVC090 14/12 A2972 RMK AO2 RAB24 SLP063 P0001 T01390122
Loading
Personal Weather Stations






























Interactive Weather Map
Tropical Storm Tracking
New forecast layout! Learn more

10-Day Weather Forecast

Advertisements
Track Severe Weather on mobile